Meridien — FT2092 — position and weather

sailwx.info

Track history (hours):
 
Tides and Currents Weather Stations Pressure Air Temp Water Temp Dewpoint Dewpoint Depression Visibility Wind Speed Wind Dir Waves Ship Positions

Meridien

Last reported at 2015-Sep-01 16:05 UTC. Time now 2015-Sep-02 00:27 UTC.
Position N 43°24' E 004°60'.

Length 21 m.

MMSI: 227321780.

Date/timePositionNaut miles runAvg speedWind from/ knotsBaromVisibWave heightAir tempDewpointWater temp
2015-Sep-01 16:05N 43°24' E 004°60'2 3.7
2015-Sep-01 15:33N 43°24' E 005°02'2 2.0
2015-Sep-01 14:34N 43°24' E 004°60'0 0.0
2015-Sep-01 13:34N 43°24' E 004°60'6 6.3
2015-Sep-01 12:34N 43°18' E 005°01'2 0.3
2015-Sep-01 07:33N 43°19' E 004°60'5 4.9
2015-Sep-01 06:33N 43°24' E 004°60'2 2.2
2015-Sep-01 05:33N 43°22' E 004°59'4 0.2
2015-Aug-31 12:22N 43°19' E 004°55'3 2.8
2015-Aug-31 11:14N 43°18' E 004°59'2 2.7
2015-Aug-31 10:33N 43°19' E 004°59'1 0.6
2015-Aug-31 09:33N 43°20' E 004°59'4 0.7
2015-Aug-31 03:27N 43°16' E 004°56'  
2015-Aug-28 12:13N 43°24' E 004°60'5 8.2
2015-Aug-28 11:33N 43°19' E 005°01'1 0.8
2015-Aug-28 10:33N 43°19' E 005°00'1 0.1
2015-Aug-28 02:05N 43°18' E 005°01'3 6.5
2015-Aug-28 01:34N 43°21' E 004°59'3 0.3
2015-Aug-27 14:33N 43°24' E 004°60'7 6.7
2015-Aug-27 13:33N 43°18' E 005°02'1 0.1
2015-Aug-27 02:15N 43°18' E 005°01'5 7.0
2015-Aug-27 01:33N 43°23' E 004°59'2 0.2
2015-Aug-26 15:33N 43°24' E 004°60'0 0.1
2015-Aug-26 14:33N 43°24' E 004°60'3 0.2
2015-Aug-26 01:33N 43°21' E 004°59'3 0.3
2015-Aug-25 15:33N 43°24' E 004°59'0 0.4
2015-Aug-25 14:33N 43°24' E 004°60'0 0.0
2015-Aug-25 01:33N 43°24' E 004°60'0 0.0
2015-Aug-24 14:17N 43°24' E 004°60'0 0.0
2015-Aug-24 13:34N 43°24' E 004°60'0 0.0
2015-Aug-24 12:34N 43°24' E 004°60'3 3.1
2015-Aug-24 11:34N 43°21' E 004°59'4 0.6
2015-Aug-24 06:03N 43°18' E 005°01'2 3.8
2015-Aug-24 05:33N 43°20' E 004°60'3 0.8
2015-Aug-24 01:34N 43°23' E 004°59'  
Track history (hours):
 
Tides and Currents Weather Stations Pressure Air Temp Water Temp Dewpoint Dewpoint Depression Visibility Wind Speed Wind Dir Waves Ship Positions

Meridien

Last reported at 2015-Sep-01 16:05 UTC. Time now 2015-Sep-02 00:27 UTC.
Position N 43°24' E 004°60'.

Length 21 m.

MMSI: 227321780.

Date/timePositionNaut miles runAvg speedWind from/ knotsBaromVisibWave heightAir tempDewpointWater temp
2015-Sep-01 16:05N 43°24' E 004°60'2 3.7
2015-Sep-01 15:33N 43°24' E 005°02'2 2.0
2015-Sep-01 14:34N 43°24' E 004°60'0 0.0
2015-Sep-01 13:34N 43°24' E 004°60'6 6.3
2015-Sep-01 12:34N 43°18' E 005°01'2 0.3
2015-Sep-01 07:33N 43°19' E 004°60'5 4.9
2015-Sep-01 06:33N 43°24' E 004°60'2 2.2
2015-Sep-01 05:33N 43°22' E 004°59'4 0.2
2015-Aug-31 12:22N 43°19' E 004°55'3 2.8
2015-Aug-31 11:14N 43°18' E 004°59'2 2.7
2015-Aug-31 10:33N 43°19' E 004°59'1 0.6
2015-Aug-31 09:33N 43°20' E 004°59'4 0.7
2015-Aug-31 03:27N 43°16' E 004°56'  
2015-Aug-28 12:13N 43°24' E 004°60'5 8.2
2015-Aug-28 11:33N 43°19' E 005°01'1 0.8
2015-Aug-28 10:33N 43°19' E 005°00'1 0.1
2015-Aug-28 02:05N 43°18' E 005°01'3 6.5
2015-Aug-28 01:34N 43°21' E 004°59'3 0.3
2015-Aug-27 14:33N 43°24' E 004°60'7 6.7
2015-Aug-27 13:33N 43°18' E 005°02'1 0.1
2015-Aug-27 02:15N 43°18' E 005°01'5 7.0
2015-Aug-27 01:33N 43°23' E 004°59'2 0.2
2015-Aug-26 15:33N 43°24' E 004°60'0 0.1
2015-Aug-26 14:33N 43°24' E 004°60'3 0.2
2015-Aug-26 01:33N 43°21' E 004°59'3 0.3
2015-Aug-25 15:33N 43°24' E 004°59'0 0.4
2015-Aug-25 14:33N 43°24' E 004°60'0 0.0
2015-Aug-25 01:33N 43°24' E 004°60'0 0.0
2015-Aug-24 14:17N 43°24' E 004°60'0 0.0
2015-Aug-24 13:34N 43°24' E 004°60'0 0.0
2015-Aug-24 12:34N 43°24' E 004°60'3 3.1
2015-Aug-24 11:34N 43°21' E 004°59'4 0.6
2015-Aug-24 06:03N 43°18' E 005°01'2 3.8
2015-Aug-24 05:33N 43°20' E 004°60'3 0.8
2015-Aug-24 01:34N 43°23' E 004°59'  

Dump ship's entire track history